sensor_id;sensor_type;location;lat;lon;timestamp;pressure;altitude;pressure_sealevel;temperature;humidity
78383;BME280;67668;52.294;4.692;2023-07-13T00:01:59;101366.19;;;20.58;65.93
78383;BME280;67668;52.294;4.692;2023-07-13T00:04:25;101364.72;;;20.56;66.17
78383;BME280;67668;52.294;4.692;2023-07-13T00:06:51;101363.06;;;20.55;66.90
78383;BME280;67668;52.294;4.692;2023-07-13T00:09:17;101359.94;;;20.51;66.20
78383;BME280;67668;52.294;4.692;2023-07-13T00:11:44;101358.66;;;20.47;66.84
78383;BME280;67668;52.294;4.692;2023-07-13T00:14:10;101353.69;;;20.44;66.44
78383;BME280;67668;52.294;4.692;2023-07-13T00:16:38;101359.06;;;20.44;66.48
78383;BME280;67668;52.294;4.692;2023-07-13T00:19:04;101364.81;;;20.41;66.67
78383;BME280;67668;52.294;4.692;2023-07-13T00:21:30;101357.78;;;20.40;66.67
78383;BME280;67668;52.294;4.692;2023-07-13T00:23:55;101363.31;;;20.39;66.76
78383;BME280;67668;52.294;4.692;2023-07-13T00:26:21;101375.94;;;20.38;66.60
78383;BME280;67668;52.294;4.692;2023-07-13T00:28:47;101373.47;;;20.37;66.76
78383;BME280;67668;52.294;4.692;2023-07-13T00:31:13;101377.16;;;20.36;66.58
78383;BME280;67668;52.294;4.692;2023-07-13T00:33:42;101370.50;;;20.32;66.66
78383;BME280;67668;52.294;4.692;2023-07-13T00:36:08;101373.41;;;20.30;66.44
78383;BME280;67668;52.294;4.692;2023-07-13T00:38:34;101370.88;;;20.29;66.78
78383;BME280;67668;52.294;4.692;2023-07-13T00:41:00;101370.06;;;20.28;66.51
78383;BME280;67668;52.294;4.692;2023-07-13T00:43:27;101374.63;;;20.28;66.74
78383;BME280;67668;52.294;4.692;2023-07-13T00:48:25;101380.34;;;20.25;66.47
78383;BME280;67668;52.294;4.692;2023-07-13T00:50:53;101377.00;;;20.23;66.50
78383;BME280;67668;52.294;4.692;2023-07-13T00:53:21;101368.09;;;20.22;66.37
78383;BME280;67668;52.294;4.692;2023-07-13T00:55:48;101372.00;;;20.20;66.37
78383;BME280;67668;52.294;4.692;2023-07-13T00:58:15;101370.34;;;20.19;66.35
78383;BME280;67668;52.294;4.692;2023-07-13T01:00:41;101374.06;;;20.18;66.57
78383;BME280;67668;52.294;4.692;2023-07-13T01:03:07;101377.78;;;20.17;66.43
78383;BME280;67668;52.294;4.692;2023-07-13T01:05:33;101381.47;;;20.16;66.20
78383;BME280;67668;52.294;4.692;2023-07-13T01:08:01;101380.00;;;20.13;66.53
78383;BME280;67668;52.294;4.692;2023-07-13T01:10:29;101384.94;;;20.09;65.95
78383;BME280;67668;52.294;4.692;2023-07-13T01:12:54;101382.44;;;20.08;66.28
78383;BME280;67668;52.294;4.692;2023-07-13T01:15:36;101386.31;;;20.05;66.19
78383;BME280;67668;52.294;4.692;2023-07-13T01:18:04;101380.31;;;20.03;66.36
78383;BME280;67668;52.294;4.692;2023-07-13T01:20:30;101385.06;;;20.01;66.23
78383;BME280;67668;52.294;4.692;2023-07-13T01:23:11;101379.88;;;20.00;66.45
78383;BME280;67668;52.294;4.692;2023-07-13T01:25:38;101384.59;;;19.98;66.11
78383;BME280;67668;52.294;4.692;2023-07-13T01:28:06;101387.47;;;19.96;66.14
78383;BME280;67668;52.294;4.692;2023-07-13T01:30:35;101383.31;;;19.94;66.48
78383;BME280;67668;52.294;4.692;2023-07-13T01:33:01;101385.53;;;19.90;65.96
78383;BME280;67668;52.294;4.692;2023-07-13T01:35:27;101384.53;;;19.91;66.06
78383;BME280;67668;52.294;4.692;2023-07-13T01:37:53;101384.91;;;19.88;65.94
78383;BME280;67668;52.294;4.692;2023-07-13T01:40:20;101380.72;;;19.86;66.17
78383;BME280;67668;52.294;4.692;2023-07-13T01:42:46;101390.00;;;19.83;66.21
78383;BME280;67668;52.294;4.692;2023-07-13T01:45:11;101396.59;;;19.81;65.59
78383;BME280;67668;52.294;4.692;2023-07-13T01:47:37;101395.13;;;19.78;66.14
78383;BME280;67668;52.294;4.692;2023-07-13T01:50:03;101399.84;;;19.76;66.28
78383;BME280;67668;52.294;4.692;2023-07-13T01:52:28;101390.31;;;19.74;66.21
78383;BME280;67668;52.294;4.692;2023-07-13T01:54:54;101395.03;;;19.72;66.12
78383;BME280;67668;52.294;4.692;2023-07-13T01:57:19;101397.91;;;19.70;66.21
78383;BME280;67668;52.294;4.692;2023-07-13T01:59:45;101400.78;;;19.69;66.24
78383;BME280;67668;52.294;4.692;2023-07-13T02:02:10;101400.13;;;19.67;66.42
78383;BME280;67668;52.294;4.692;2023-07-13T02:04:36;101404.03;;;19.64;66.37
78383;BME280;67668;52.294;4.692;2023-07-13T02:07:02;101405.25;;;19.62;66.14
78383;BME280;67668;52.294;4.692;2023-07-13T02:09:28;101401.06;;;19.59;66.26
78383;BME280;67668;52.294;4.692;2023-07-13T02:11:53;101402.09;;;19.58;66.48
78383;BME280;67668;52.294;4.692;2023-07-13T02:14:19;101408.66;;;19.55;66.63
78383;BME280;67668;52.294;4.692;2023-07-13T02:16:44;101406.34;;;19.52;66.45
78383;BME280;67668;52.294;4.692;2023-07-13T02:19:09;101413.59;;;19.52;65.98
78383;BME280;67668;52.294;4.692;2023-07-13T02:21:35;101410.44;;;19.48;66.42
78383;BME280;67668;52.294;4.692;2023-07-13T02:24:01;101415.97;;;19.47;66.46
78383;BME280;67668;52.294;4.692;2023-07-13T02:26:27;101413.66;;;19.44;66.56
78383;BME280;67668;52.294;4.692;2023-07-13T02:28:53;101414.88;;;19.41;66.90
78383;BME280;67668;52.294;4.692;2023-07-13T02:31:19;101419.41;;;19.41;66.87
78383;BME280;67668;52.294;4.692;2023-07-13T02:33:44;101414.38;;;19.38;66.86
78383;BME280;67668;52.294;4.692;2023-07-13T02:36:11;101412.69;;;19.37;67.19
78383;BME280;67668;52.294;4.692;2023-07-13T02:38:37;101406.69;;;19.35;67.32
78383;BME280;67668;52.294;4.692;2023-07-13T02:41:06;101400.66;;;19.33;67.45
78383;BME280;67668;52.294;4.692;2023-07-13T02:43:32;101399.66;;;19.34;67.89
78383;BME280;67668;52.294;4.692;2023-07-13T02:45:59;101398.19;;;19.31;67.93
78383;BME280;67668;52.294;4.692;2023-07-13T02:48:29;101403.53;;;19.31;67.84
78383;BME280;67668;52.294;4.692;2023-07-13T02:50:55;101404.75;;;19.29;67.97
78383;BME280;67668;52.294;4.692;2023-07-13T02:53:20;101408.44;;;19.28;68.43
78383;BME280;67668;52.294;4.692;2023-07-13T02:55:46;101414.81;;;19.27;68.06
78383;BME280;67668;52.294;4.692;2023-07-13T02:58:13;101405.94;;;19.26;68.52
78383;BME280;67668;52.294;4.692;2023-07-13T03:00:43;101413.34;;;19.24;68.46
78383;BME280;67668;52.294;4.692;2023-07-13T03:03:08;101417.88;;;19.24;68.48
78383;BME280;67668;52.294;4.692;2023-07-13T03:05:34;101411.88;;;19.22;68.58
78383;BME280;67668;52.294;4.692;2023-07-13T03:07:59;101418.25;;;19.21;68.53
78383;BME280;67668;52.294;4.692;2023-07-13T03:10:25;101412.88;;;19.21;68.55
78383;BME280;67668;52.294;4.692;2023-07-13T03:12:50;101414.94;;;19.19;68.67
78383;BME280;67668;52.294;4.692;2023-07-13T03:15:16;101418.63;;;19.18;68.67
78383;BME280;67668;52.294;4.692;2023-07-13T03:17:41;101419.63;;;19.17;68.95
78383;BME280;67668;52.294;4.692;2023-07-13T03:20:07;101425.00;;;19.17;69.02
78383;BME280;67668;52.294;4.692;2023-07-13T03:22:33;101426.84;;;19.16;68.93
78383;BME280;67668;52.294;4.692;2023-07-13T03:24:58;101422.50;;;19.15;68.78
78383;BME280;67668;52.294;4.692;2023-07-13T03:27:24;101414.63;;;19.14;69.00
78383;BME280;67668;52.294;4.692;2023-07-13T03:29:49;101415.63;;;19.13;68.90
78383;BME280;67668;52.294;4.692;2023-07-13T03:32:15;101415.63;;;19.13;69.00
78383;BME280;67668;52.294;4.692;2023-07-13T03:34:40;101426.38;;;19.13;69.52
78383;BME280;67668;52.294;4.692;2023-07-13T03:37:06;101428.41;;;19.10;69.38
78383;BME280;67668;52.294;4.692;2023-07-13T03:39:31;101423.88;;;19.11;69.13
78383;BME280;67668;52.294;4.692;2023-07-13T03:41:56;101422.22;;;19.10;69.45
78383;BME280;67668;52.294;4.692;2023-07-13T03:44:22;101433.78;;;19.10;69.13
78383;BME280;67668;52.294;4.692;2023-07-13T03:46:47;101426.75;;;19.09;69.14
78383;BME280;67668;52.294;4.692;2023-07-13T03:49:13;101430.63;;;19.07;69.23
78383;BME280;67668;52.294;4.692;2023-07-13T03:51:38;101429.63;;;19.08;69.57
78383;BME280;67668;52.294;4.692;2023-07-13T03:54:04;101428.78;;;19.07;69.28
78383;BME280;67668;52.294;4.692;2023-07-13T03:56:30;101429.78;;;19.06;69.53
78383;BME280;67668;52.294;4.692;2023-07-13T03:58:56;101433.31;;;19.07;69.39
78383;BME280;67668;52.294;4.692;2023-07-13T04:01:23;101433.50;;;19.05;69.72
78383;BME280;67668;52.294;4.692;2023-07-13T04:03:52;101430.81;;;19.05;69.69
78383;BME280;67668;52.294;4.692;2023-07-13T04:06:20;101426.47;;;19.04;69.73
78383;BME280;67668;52.294;4.692;2023-07-13T04:08:48;101431.16;;;19.02;69.79
78383;BME280;67668;52.294;4.692;2023-07-13T04:11:16;101432.84;;;19.03;70.03
78383;BME280;67668;52.294;4.692;2023-07-13T04:13:41;101439.22;;;19.02;69.94
78383;BME280;67668;52.294;4.692;2023-07-13T04:16:06;101440.25;;;19.01;69.91
78383;BME280;67668;52.294;4.692;2023-07-13T04:18:34;101442.94;;;19.01;70.11
78383;BME280;67668;52.294;4.692;2023-07-13T04:20:59;101434.03;;;19.01;70.17
78383;BME280;67668;52.294;4.692;2023-07-13T04:23:25;101440.25;;;19.01;70.23
78383;BME280;67668;52.294;4.692;2023-07-13T04:25:52;101443.09;;;19.00;70.63
78383;BME280;67668;52.294;4.692;2023-07-13T04:28:19;101438.56;;;19.00;70.62
78383;BME280;67668;52.294;4.692;2023-07-13T04:30:44;101435.91;;;19.00;70.76
78383;BME280;67668;52.294;4.692;2023-07-13T04:33:10;101440.25;;;19.01;70.58
78383;BME280;67668;52.294;4.692;2023-07-13T04:35:36;101443.09;;;19.00;70.69
78383;BME280;67668;52.294;4.692;2023-07-13T04:38:03;101449.31;;;19.00;70.75
78383;BME280;67668;52.294;4.692;2023-07-13T04:40:28;101449.31;;;19.00;70.73
78383;BME280;67668;52.294;4.692;2023-07-13T04:42:54;101449.31;;;19.00;70.98
78383;BME280;67668;52.294;4.692;2023-07-13T04:45:20;101454.03;;;18.98;70.99
78383;BME280;67668;52.294;4.692;2023-07-13T04:47:45;101454.03;;;18.98;70.90
78383;BME280;67668;52.294;4.692;2023-07-13T04:50:13;101461.25;;;18.98;70.93
78383;BME280;67668;52.294;4.692;2023-07-13T04:52:46;101459.41;;;18.98;70.90
78383;BME280;67668;52.294;4.692;2023-07-13T04:55:12;101464.09;;;18.96;70.58
78383;BME280;67668;52.294;4.692;2023-07-13T04:57:38;101464.09;;;18.96;70.95
78383;BME280;67668;52.294;4.692;2023-07-13T05:00:04;101464.94;;;18.97;70.99
78383;BME280;67668;52.294;4.692;2023-07-13T05:02:30;101475.84;;;18.95;70.77
78383;BME280;67668;52.294;4.692;2023-07-13T05:04:57;101468.81;;;18.94;71.17
78383;BME280;67668;52.294;4.692;2023-07-13T05:07:22;101468.63;;;18.96;71.09
78383;BME280;67668;52.294;4.692;2023-07-13T05:09:48;101475.84;;;18.95;71.28
78383;BME280;67668;52.294;4.692;2023-07-13T05:12:14;101479.34;;;18.96;71.35
78383;BME280;67668;52.294;4.692;2023-07-13T05:14:41;101486.59;;;18.95;71.41
78383;BME280;67668;52.294;4.692;2023-07-13T05:17:06;101485.56;;;18.96;71.22
78383;BME280;67668;52.294;4.692;2023-07-13T05:19:32;101485.56;;;18.96;71.50
78383;BME280;67668;52.294;4.692;2023-07-13T05:21:57;101489.06;;;18.97;71.58
78383;BME280;67668;52.294;4.692;2023-07-13T05:24:23;101483.72;;;18.97;71.50
78383;BME280;67668;52.294;4.692;2023-07-13T05:26:49;101488.91;;;18.98;71.25
78383;BME280;67668;52.294;4.692;2023-07-13T05:29:14;101493.44;;;18.98;71.40
78383;BME280;67668;52.294;4.692;2023-07-13T05:31:40;101495.91;;;18.99;71.39
78383;BME280;67668;52.294;4.692;2023-07-13T05:34:05;101497.59;;;19.00;71.50
78383;BME280;67668;52.294;4.692;2023-07-13T05:36:31;101498.25;;;19.02;72.12
78383;BME280;67668;52.294;4.692;2023-07-13T05:38:56;101501.97;;;19.01;71.32
78383;BME280;67668;52.294;4.692;2023-07-13T05:41:22;101508.34;;;19.00;71.09
78383;BME280;67668;52.294;4.692;2023-07-13T05:43:47;101505.47;;;19.02;71.28
78383;BME280;67668;52.294;4.692;2023-07-13T05:46:13;101501.75;;;19.03;71.67
78383;BME280;67668;52.294;4.692;2023-07-13T05:48:38;101510.47;;;19.05;71.61
78383;BME280;67668;52.294;4.692;2023-07-13T05:51:05;101512.59;;;19.09;71.78
78383;BME280;67668;52.294;4.692;2023-07-13T05:53:30;101510.59;;;19.12;71.83
78383;BME280;67668;52.294;4.692;2023-07-13T05:55:56;101515.75;;;19.13;71.24
78383;BME280;67668;52.294;4.692;2023-07-13T05:58:21;101514.59;;;19.16;71.27
78383;BME280;67668;52.294;4.692;2023-07-13T06:00:47;101510.72;;;19.18;71.00
78383;BME280;67668;52.294;4.692;2023-07-13T06:03:14;101512.19;;;19.21;70.75
78383;BME280;67668;52.294;4.692;2023-07-13T06:05:40;101521.91;;;19.22;70.80
78383;BME280;67668;52.294;4.692;2023-07-13T06:08:06;101525.25;;;19.24;70.34
78383;BME280;67668;52.294;4.692;2023-07-13T06:10:33;101526.72;;;19.26;70.50
78383;BME280;67668;52.294;4.692;2023-07-13T06:12:58;101524.72;;;19.28;70.80
78383;BME280;67668;52.294;4.692;2023-07-13T06:15:24;101518.31;;;19.29;70.04
78383;BME280;67668;52.294;4.692;2023-07-13T06:17:50;101537.56;;;19.33;70.23
78383;BME280;67668;52.294;4.692;2023-07-13T06:20:16;101536.19;;;19.37;69.63
78383;BME280;67668;52.294;4.692;2023-07-13T06:22:41;101542.06;;;19.40;69.60
78383;BME280;67668;52.294;4.692;2023-07-13T06:25:07;101544.22;;;19.45;69.64
78383;BME280;67668;52.294;4.692;2023-07-13T06:27:34;101548.19;;;19.49;69.81
78383;BME280;67668;52.294;4.692;2023-07-13T06:29:59;101542.56;;;19.58;69.23
78383;BME280;67668;52.294;4.692;2023-07-13T06:32:25;101542.69;;;19.65;68.87
78383;BME280;67668;52.294;4.692;2023-07-13T06:34:50;101544.25;;;19.74;68.39
78383;BME280;67668;52.294;4.692;2023-07-13T06:37:17;101545.81;;;19.83;68.94
78383;BME280;67668;52.294;4.692;2023-07-13T06:39:43;101546.38;;;19.93;67.76
78383;BME280;67668;52.294;4.692;2023-07-13T06:42:08;101553.16;;;20.04;67.65
78383;BME280;67668;52.294;4.692;2023-07-13T06:44:34;101546.47;;;20.15;67.13
78383;BME280;67668;52.294;4.692;2023-07-13T06:46:59;101542.44;;;20.25;65.37
78383;BME280;67668;52.294;4.692;2023-07-13T06:49:25;101546.56;;;20.36;65.67
78383;BME280;67668;52.294;4.692;2023-07-13T06:51:51;101552.69;;;20.44;65.38
78383;BME280;67668;52.294;4.692;2023-07-13T06:54:16;101552.38;;;20.54;65.10
78383;BME280;67668;52.294;4.692;2023-07-13T06:56:42;101558.53;;;20.69;65.07
78383;BME280;67668;52.294;4.692;2023-07-13T06:59:08;101559.72;;;20.81;64.69
78383;BME280;67668;52.294;4.692;2023-07-13T07:01:34;101565.88;;;20.96;65.78
78383;BME280;67668;52.294;4.692;2023-07-13T07:03:59;101563.69;;;21.06;63.78
78383;BME280;67668;52.294;4.692;2023-07-13T07:06:24;101559.88;;;21.16;63.33
78383;BME280;67668;52.294;4.692;2023-07-13T07:08:51;101565.97;;;21.24;63.36
78383;BME280;67668;52.294;4.692;2023-07-13T07:11:22;101565.63;;;21.34;63.21
78383;BME280;67668;52.294;4.692;2023-07-13T07:13:49;101575.22;;;21.43;62.73
78383;BME280;67668;52.294;4.692;2023-07-13T07:16:15;101576.97;;;21.50;62.77
78383;BME280;67668;52.294;4.692;2023-07-13T07:18:40;101579.72;;;21.57;62.31
78383;BME280;67668;52.294;4.692;2023-07-13T07:21:06;101587.00;;;21.63;62.29
78383;BME280;67668;52.294;4.692;2023-07-13T07:23:32;101590.13;;;21.67;61.03
78383;BME280;67668;52.294;4.692;2023-07-13T07:25:57;101589.53;;;21.71;61.79
78383;BME280;67668;52.294;4.692;2023-07-13T07:28:23;101597.44;;;21.73;61.44
78383;BME280;67668;52.294;4.692;2023-07-13T07:30:49;101586.06;;;21.77;61.37
78383;BME280;67668;52.294;4.692;2023-07-13T07:33:17;101596.25;;;21.82;61.41
78383;BME280;67668;52.294;4.692;2023-07-13T07:35:43;101592.97;;;21.86;61.24
78383;BME280;67668;52.294;4.692;2023-07-13T07:38:08;101594.06;;;21.92;61.21
78383;BME280;67668;52.294;4.692;2023-07-13T07:40:38;101600.56;;;21.97;60.97
78383;BME280;67668;52.294;4.692;2023-07-13T07:43:05;101589.16;;;22.02;60.66
78383;BME280;67668;52.294;4.692;2023-07-13T07:45:31;101595.59;;;22.07;60.51
78383;BME280;67668;52.294;4.692;2023-07-13T07:47:56;101596.47;;;22.14;59.94
78383;BME280;67668;52.294;4.692;2023-07-13T07:50:25;101595.69;;;22.21;58.78
78383;BME280;67668;52.294;4.692;2023-07-13T07:52:51;101596.56;;;22.28;58.86
78383;BME280;67668;52.294;4.692;2023-07-13T07:55:16;101587.06;;;22.38;59.11
78383;BME280;67668;52.294;4.692;2023-07-13T07:57:42;101591.25;;;22.47;58.79
78383;BME280;67668;52.294;4.692;2023-07-13T08:00:08;101591.50;;;22.59;58.30
78383;BME280;67668;52.294;4.692;2023-07-13T08:02:33;101597.19;;;22.71;57.77
78383;BME280;67668;52.294;4.692;2023-07-13T08:04:59;101593.91;;;22.82;57.28
78383;BME280;67668;52.294;4.692;2023-07-13T08:07:24;101593.50;;;22.91;56.82
78383;BME280;67668;52.294;4.692;2023-07-13T08:09:54;101597.66;;;23.00;56.93
78383;BME280;67668;52.294;4.692;2023-07-13T08:12:20;101596.47;;;23.09;57.49
78383;BME280;67668;52.294;4.692;2023-07-13T08:14:49;101595.84;;;23.21;56.63
78383;BME280;67668;52.294;4.692;2023-07-13T08:17:15;101596.06;;;23.26;56.01
78383;BME280;67668;52.294;4.692;2023-07-13T08:19:41;101607.72;;;23.33;55.77
78383;BME280;67668;52.294;4.692;2023-07-13T08:22:06;101601.28;;;23.40;54.65
78383;BME280;67668;52.294;4.692;2023-07-13T08:24:31;101604.22;;;23.52;56.36
78383;BME280;67668;52.294;4.692;2023-07-13T08:26:57;101602.34;;;23.65;54.87
78383;BME280;67668;52.294;4.692;2023-07-13T08:29:22;101616.47;;;23.74;55.44
78383;BME280;67668;52.294;4.692;2023-07-13T08:31:48;101613.16;;;23.79;53.72
78383;BME280;67668;52.294;4.692;2023-07-13T08:34:13;101604.59;;;23.88;54.04
78383;BME280;67668;52.294;4.692;2023-07-13T08:36:40;101608.31;;;24.00;53.39
78383;BME280;67668;52.294;4.692;2023-07-13T08:39:06;101613.28;;;24.10;53.51
78383;BME280;67668;52.294;4.692;2023-07-13T08:41:32;101615.38;;;24.21;52.17
78383;BME280;67668;52.294;4.692;2023-07-13T08:43:59;101606.41;;;24.27;52.52
78383;BME280;67668;52.294;4.692;2023-07-13T08:46:33;101614.09;;;24.37;51.73
78383;BME280;67668;52.294;4.692;2023-07-13T08:49:03;101616.75;;;24.50;51.79
78383;BME280;67668;52.294;4.692;2023-07-13T08:51:51;101630.03;;;24.58;50.31
78383;BME280;67668;52.294;4.692;2023-07-13T08:54:23;101613.13;;;24.69;50.10
78383;BME280;67668;52.294;4.692;2023-07-13T08:56:50;101613.09;;;24.82;51.02
78383;BME280;67668;52.294;4.692;2023-07-13T08:59:19;101608.88;;;24.86;48.03
78383;BME280;67668;52.294;4.692;2023-07-13T09:04:27;101620.63;;;25.11;48.66
78383;BME280;67668;52.294;4.692;2023-07-13T09:07:14;101620.09;;;25.28;49.29
78383;BME280;67668;52.294;4.692;2023-07-13T09:10:14;101634.16;;;25.43;49.40
78383;BME280;67668;52.294;4.692;2023-07-13T09:15:29;101627.38;;;25.65;48.76
78383;BME280;67668;52.294;4.692;2023-07-13T09:20:51;101635.53;;;25.83;48.06
78383;BME280;67668;52.294;4.692;2023-07-13T09:23:23;101642.09;;;25.94;47.42
78383;BME280;67668;52.294;4.692;2023-07-13T09:25:53;101636.56;;;26.07;48.09
78383;BME280;67668;52.294;4.692;2023-07-13T09:28:43;101646.47;;;26.19;47.67
78383;BME280;67668;52.294;4.692;2023-07-13T09:31:42;101652.66;;;26.27;45.58
78383;BME280;67668;52.294;4.692;2023-07-13T09:34:11;101648.00;;;26.34;44.95
78383;BME280;67668;52.294;4.692;2023-07-13T09:36:37;101646.50;;;26.38;44.12
78383;BME280;67668;52.294;4.692;2023-07-13T09:41:49;101659.84;;;26.57;46.23
78383;BME280;67668;52.294;4.692;2023-07-13T09:44:27;101653.63;;;26.68;45.50
78383;BME280;67668;52.294;4.692;2023-07-13T09:46:56;101652.69;;;26.81;44.80
78383;BME280;67668;52.294;4.692;2023-07-13T09:49:40;101656.72;;;26.90;44.36
78383;BME280;67668;52.294;4.692;2023-07-13T09:52:11;101653.94;;;26.97;42.95
78383;BME280;67668;52.294;4.692;2023-07-13T09:54:37;101653.84;;;27.03;43.84
78383;BME280;67668;52.294;4.692;2023-07-13T09:57:12;101654.31;;;27.12;42.28
78383;BME280;67668;52.294;4.692;2023-07-13T09:59:45;101655.31;;;27.17;43.10
78383;BME280;67668;52.294;4.692;2023-07-13T10:02:33;101669.06;;;27.34;43.77
78383;BME280;67668;52.294;4.692;2023-07-13T10:05:11;101674.09;;;27.49;42.99
78383;BME280;67668;52.294;4.692;2023-07-13T10:07:43;101676.13;;;27.53;41.66
78383;BME280;67668;52.294;4.692;2023-07-13T10:10:18;101679.69;;;27.65;41.56
78383;BME280;67668;52.294;4.692;2023-07-13T10:12:47;101684.91;;;27.79;43.58
78383;BME280;67668;52.294;4.692;2023-07-13T10:15:20;101692.63;;;27.93;42.65
78383;BME280;67668;52.294;4.692;2023-07-13T10:17:47;101685.53;;;27.92;41.05
78383;BME280;67668;52.294;4.692;2023-07-13T10:20:14;101686.59;;;28.03;42.01
78383;BME280;67668;52.294;4.692;2023-07-13T10:25:21;101684.84;;;28.20;40.80
78383;BME280;67668;52.294;4.692;2023-07-13T10:27:51;101691.81;;;28.28;39.91
78383;BME280;67668;52.294;4.692;2023-07-13T10:30:29;101697.97;;;28.35;40.86
78383;BME280;67668;52.294;4.692;2023-07-13T10:33:02;101692.03;;;28.49;41.57
78383;BME280;67668;52.294;4.692;2023-07-13T10:35:29;101698.53;;;28.60;40.41
78383;BME280;67668;52.294;4.692;2023-07-13T10:38:07;101701.88;;;28.73;41.02
78383;BME280;67668;52.294;4.692;2023-07-13T10:40:39;101706.69;;;28.83;40.84
78383;BME280;67668;52.294;4.692;2023-07-13T10:43:18;101712.72;;;28.85;39.44
78383;BME280;67668;52.294;4.692;2023-07-13T10:45:46;101708.44;;;28.89;38.42
78383;BME280;67668;52.294;4.692;2023-07-13T10:48:15;101712.09;;;28.95;38.47
78383;BME280;67668;52.294;4.692;2023-07-13T10:50:44;101720.63;;;28.98;38.46
78383;BME280;67668;52.294;4.692;2023-07-13T10:53:30;101719.06;;;29.02;37.93
78383;BME280;67668;52.294;4.692;2023-07-13T10:58:41;101721.59;;;29.20;39.18
78383;BME280;67668;52.294;4.692;2023-07-13T11:01:17;101733.56;;;29.31;38.33
78383;BME280;67668;52.294;4.692;2023-07-13T11:09:40;101730.00;;;29.59;35.90
78383;BME280;67668;52.294;4.692;2023-07-13T11:12:27;101734.19;;;29.66;36.29
78383;BME280;67668;52.294;4.692;2023-07-13T11:20:20;101732.72;;;29.59;35.78
78383;BME280;67668;52.294;4.692;2023-07-13T11:22:50;101725.09;;;29.61;36.17
78383;BME280;67668;52.294;4.692;2023-07-13T11:25:29;101731.41;;;29.78;37.55
78383;BME280;67668;52.294;4.692;2023-07-13T11:33:17;101728.72;;;29.95;36.65
78383;BME280;67668;52.294;4.692;2023-07-13T11:35:57;101726.41;;;30.03;35.72
78383;BME280;67668;52.294;4.692;2023-07-13T11:38:45;101736.66;;;30.13;36.33
78383;BME280;67668;52.294;4.692;2023-07-13T11:41:34;101729.72;;;30.22;36.04
78383;BME280;67668;52.294;4.692;2023-07-13T11:44:11;101735.06;;;30.34;36.20
78383;BME280;67668;52.294;4.692;2023-07-13T11:46:37;101739.03;;;30.43;36.85
78383;BME280;67668;52.294;4.692;2023-07-13T11:49:05;101747.06;;;30.49;36.17
78383;BME280;67668;52.294;4.692;2023-07-13T11:51:34;101753.50;;;30.60;36.01
78383;BME280;67668;52.294;4.692;2023-07-13T11:54:17;101754.66;;;30.64;35.96
78383;BME280;67668;52.294;4.692;2023-07-13T11:56:45;101755.31;;;30.71;35.75
78383;BME280;67668;52.294;4.692;2023-07-13T11:59:12;101759.25;;;30.80;36.26
78383;BME280;67668;52.294;4.692;2023-07-13T12:01:46;101764.19;;;30.83;35.44
78383;BME280;67668;52.294;4.692;2023-07-13T12:04:26;101757.59;;;30.79;35.78
78383;BME280;67668;52.294;4.692;2023-07-13T12:06:58;101762.75;;;30.75;35.79
78383;BME280;67668;52.294;4.692;2023-07-13T12:09:29;101757.59;;;30.79;36.42
78383;BME280;67668;52.294;4.692;2023-07-13T12:11:57;101756.81;;;30.84;36.52
78383;BME280;67668;52.294;4.692;2023-07-13T12:14:23;101754.75;;;30.91;35.73
78383;BME280;67668;52.294;4.692;2023-07-13T12:16:50;101755.56;;;30.91;34.44
78383;BME280;67668;52.294;4.692;2023-07-13T12:19:22;101752.25;;;30.89;35.19
78383;BME280;67668;52.294;4.692;2023-07-13T12:21:49;101767.66;;;30.95;35.85
78383;BME280;67668;52.294;4.692;2023-07-13T12:24:20;101758.47;;;31.01;35.58
78383;BME280;67668;52.294;4.692;2023-07-13T12:27:00;101756.25;;;30.98;34.70
78383;BME280;67668;52.294;4.692;2023-07-13T12:29:26;101757.88;;;30.99;35.07
78383;BME280;67668;52.294;4.692;2023-07-13T12:31:52;101761.75;;;31.03;35.34
78383;BME280;67668;52.294;4.692;2023-07-13T12:34:20;101754.66;;;31.02;34.39
78383;BME280;67668;52.294;4.692;2023-07-13T12:36:49;101756.88;;;31.05;34.16
78383;BME280;67668;52.294;4.692;2023-07-13T12:39:37;101771.13;;;31.07;34.47
78383;BME280;67668;52.294;4.692;2023-07-13T12:45:03;101758.38;;;30.96;33.22
78383;BME280;67668;52.294;4.692;2023-07-13T12:47:40;101754.91;;;31.01;34.72
78383;BME280;67668;52.294;4.692;2023-07-13T12:50:56;101762.34;;;31.05;33.92
78383;BME280;67668;52.294;4.692;2023-07-13T12:53:05;101748.41;;;31.07;34.89
78383;BME280;67668;52.294;4.692;2023-07-13T12:55:41;101754.94;;;31.06;34.52
78383;BME280;67668;52.294;4.692;2023-07-13T12:58:26;101757.88;;;30.99;34.30
78383;BME280;67668;52.294;4.692;2023-07-13T13:00:54;101771.88;;;31.03;34.86
78383;BME280;67668;52.294;4.692;2023-07-13T13:03:25;101763.09;;;31.01;35.08
78383;BME280;67668;52.294;4.692;2023-07-13T13:06:04;101761.84;;;31.08;34.65
78383;BME280;67668;52.294;4.692;2023-07-13T13:08:32;101767.63;;;31.12;35.15
78383;BME280;67668;52.294;4.692;2023-07-13T13:10:57;101762.75;;;31.19;35.24
78383;BME280;67668;52.294;4.692;2023-07-13T13:13:23;101760.28;;;31.17;34.90
78383;BME280;67668;52.294;4.692;2023-07-13T13:15:50;101764.72;;;31.23;34.66
78383;BME280;67668;52.294;4.692;2023-07-13T13:18:20;101773.66;;;31.14;34.15
78383;BME280;67668;52.294;4.692;2023-07-13T13:20:46;101779.94;;;31.14;34.45
78383;BME280;67668;52.294;4.692;2023-07-13T13:23:19;101781.09;;;31.18;34.53
78383;BME280;67668;52.294;4.692;2023-07-13T13:25:49;101782.69;;;31.14;33.98
78383;BME280;67668;52.294;4.692;2023-07-13T13:28:18;101778.56;;;31.12;33.84
78383;BME280;67668;52.294;4.692;2023-07-13T13:30:45;101783.53;;;31.15;34.54
78383;BME280;67668;52.294;4.692;2023-07-13T13:33:15;101776.03;;;31.05;32.32
78383;BME280;67668;52.294;4.692;2023-07-13T13:35:43;101782.09;;;30.91;33.17